sensor_id;sensor_type;location;lat;lon;timestamp;P1;durP1;ratioP1;P2;durP2;ratioP2
5042;SDS011;2540;50.928;6.856;2023-08-20T00:02:07;10.63;;;7.03;;
5042;SDS011;2540;50.928;6.856;2023-08-20T00:04:33;10.30;;;7.80;;
5042;SDS011;2540;50.928;6.856;2023-08-20T00:07:00;11.00;;;7.60;;
5042;SDS011;2540;50.928;6.856;2023-08-20T00:09:27;10.37;;;6.73;;
5042;SDS011;2540;50.928;6.856;2023-08-20T00:11:52;11.73;;;7.23;;
5042;SDS011;2540;50.928;6.856;2023-08-20T00:14:18;17.30;;;8.23;;
5042;SDS011;2540;50.928;6.856;2023-08-20T00:16:43;11.03;;;7.37;;
5042;SDS011;2540;50.928;6.856;2023-08-20T00:19:09;12.80;;;7.27;;
5042;SDS011;2540;50.928;6.856;2023-08-20T00:21:39;9.27;;;6.50;;
5042;SDS011;2540;50.928;6.856;2023-08-20T00:24:06;10.67;;;7.27;;
5042;SDS011;2540;50.928;6.856;2023-08-20T00:26:32;11.77;;;8.40;;
5042;SDS011;2540;50.928;6.856;2023-08-20T00:28:58;11.40;;;7.77;;
5042;SDS011;2540;50.928;6.856;2023-08-20T00:31:23;12.90;;;8.07;;
5042;SDS011;2540;50.928;6.856;2023-08-20T00:33:49;13.90;;;8.33;;
5042;SDS011;2540;50.928;6.856;2023-08-20T00:36:15;13.40;;;7.60;;
5042;SDS011;2540;50.928;6.856;2023-08-20T00:38:40;17.90;;;7.70;;
5042;SDS011;2540;50.928;6.856;2023-08-20T00:41:05;13.40;;;7.37;;
5042;SDS011;2540;50.928;6.856;2023-08-20T00:43:30;11.27;;;7.30;;
5042;SDS011;2540;50.928;6.856;2023-08-20T00:45:58;10.60;;;7.50;;
5042;SDS011;2540;50.928;6.856;2023-08-20T00:48:23;12.07;;;7.10;;
5042;SDS011;2540;50.928;6.856;2023-08-20T00:50:49;13.13;;;7.40;;
5042;SDS011;2540;50.928;6.856;2023-08-20T00:53:14;11.50;;;7.50;;
5042;SDS011;2540;50.928;6.856;2023-08-20T00:55:40;12.27;;;7.53;;
5042;SDS011;2540;50.928;6.856;2023-08-20T00:58:07;11.60;;;7.33;;
5042;SDS011;2540;50.928;6.856;2023-08-20T01:00:32;16.70;;;7.77;;
5042;SDS011;2540;50.928;6.856;2023-08-20T01:02:58;11.80;;;6.87;;
5042;SDS011;2540;50.928;6.856;2023-08-20T01:05:23;7.90;;;6.30;;
5042;SDS011;2540;50.928;6.856;2023-08-20T01:10:33;9.47;;;6.37;;
5042;SDS011;2540;50.928;6.856;2023-08-20T01:13:08;9.30;;;6.23;;
5042;SDS011;2540;50.928;6.856;2023-08-20T01:15:34;9.20;;;6.40;;
5042;SDS011;2540;50.928;6.856;2023-08-20T01:17:59;6.67;;;5.23;;
5042;SDS011;2540;50.928;6.856;2023-08-20T01:20:27;9.00;;;6.50;;
5042;SDS011;2540;50.928;6.856;2023-08-20T01:25:42;13.83;;;5.80;;
5042;SDS011;2540;50.928;6.856;2023-08-20T01:30:54;13.63;;;7.43;;
5042;SDS011;2540;50.928;6.856;2023-08-20T01:33:21;10.00;;;6.67;;
5042;SDS011;2540;50.928;6.856;2023-08-20T01:35:47;10.70;;;6.03;;
5042;SDS011;2540;50.928;6.856;2023-08-20T01:38:12;10.13;;;6.53;;
5042;SDS011;2540;50.928;6.856;2023-08-20T01:40:38;11.90;;;6.47;;
5042;SDS011;2540;50.928;6.856;2023-08-20T01:43:03;8.80;;;5.90;;
5042;SDS011;2540;50.928;6.856;2023-08-20T01:45:28;10.10;;;6.20;;
5042;SDS011;2540;50.928;6.856;2023-08-20T01:47:54;10.27;;;5.40;;
5042;SDS011;2540;50.928;6.856;2023-08-20T01:50:19;9.27;;;6.47;;
5042;SDS011;2540;50.928;6.856;2023-08-20T01:52:44;11.47;;;7.10;;
5042;SDS011;2540;50.928;6.856;2023-08-20T01:55:10;8.27;;;6.13;;
5042;SDS011;2540;50.928;6.856;2023-08-20T01:57:36;11.50;;;6.83;;
5042;SDS011;2540;50.928;6.856;2023-08-20T02:00:01;10.00;;;6.17;;
5042;SDS011;2540;50.928;6.856;2023-08-20T02:02:30;12.43;;;6.50;;
5042;SDS011;2540;50.928;6.856;2023-08-20T02:04:55;9.80;;;6.07;;
5042;SDS011;2540;50.928;6.856;2023-08-20T02:07:20;10.10;;;6.70;;
5042;SDS011;2540;50.928;6.856;2023-08-20T02:09:46;12.60;;;6.07;;
5042;SDS011;2540;50.928;6.856;2023-08-20T02:12:11;8.33;;;5.60;;
5042;SDS011;2540;50.928;6.856;2023-08-20T02:14:36;9.90;;;6.20;;
5042;SDS011;2540;50.928;6.856;2023-08-20T02:17:02;18.20;;;6.40;;
5042;SDS011;2540;50.928;6.856;2023-08-20T02:19:27;12.03;;;7.70;;
5042;SDS011;2540;50.928;6.856;2023-08-20T02:21:53;8.23;;;6.10;;
5042;SDS011;2540;50.928;6.856;2023-08-20T02:24:18;12.30;;;6.27;;
5042;SDS011;2540;50.928;6.856;2023-08-20T02:26:44;14.63;;;6.73;;
5042;SDS011;2540;50.928;6.856;2023-08-20T02:29:09;13.17;;;7.17;;
5042;SDS011;2540;50.928;6.856;2023-08-20T02:31:35;9.60;;;6.67;;
5042;SDS011;2540;50.928;6.856;2023-08-20T02:34:00;14.07;;;7.00;;
5042;SDS011;2540;50.928;6.856;2023-08-20T02:36:25;13.83;;;6.80;;
5042;SDS011;2540;50.928;6.856;2023-08-20T02:38:51;13.47;;;7.07;;
5042;SDS011;2540;50.928;6.856;2023-08-20T02:41:16;11.03;;;6.90;;
5042;SDS011;2540;50.928;6.856;2023-08-20T02:43:41;9.33;;;6.67;;
5042;SDS011;2540;50.928;6.856;2023-08-20T02:46:07;12.40;;;7.10;;
5042;SDS011;2540;50.928;6.856;2023-08-20T02:48:32;15.47;;;7.77;;
5042;SDS011;2540;50.928;6.856;2023-08-20T02:50:57;13.17;;;8.10;;
5042;SDS011;2540;50.928;6.856;2023-08-20T02:53:23;16.70;;;7.93;;
5042;SDS011;2540;50.928;6.856;2023-08-20T02:55:48;15.57;;;9.27;;
5042;SDS011;2540;50.928;6.856;2023-08-20T02:58:14;13.23;;;8.23;;
5042;SDS011;2540;50.928;6.856;2023-08-20T03:00:39;15.37;;;8.00;;
5042;SDS011;2540;50.928;6.856;2023-08-20T03:03:05;15.97;;;7.33;;
5042;SDS011;2540;50.928;6.856;2023-08-20T03:05:33;12.87;;;8.07;;
5042;SDS011;2540;50.928;6.856;2023-08-20T03:07:59;16.03;;;7.90;;
5042;SDS011;2540;50.928;6.856;2023-08-20T03:10:25;11.77;;;7.70;;
5042;SDS011;2540;50.928;6.856;2023-08-20T03:12:51;11.90;;;7.97;;
5042;SDS011;2540;50.928;6.856;2023-08-20T03:15:17;11.53;;;7.43;;
5042;SDS011;2540;50.928;6.856;2023-08-20T03:17:42;11.07;;;7.00;;
5042;SDS011;2540;50.928;6.856;2023-08-20T03:20:08;13.17;;;8.43;;
5042;SDS011;2540;50.928;6.856;2023-08-20T03:22:35;12.63;;;8.40;;
5042;SDS011;2540;50.928;6.856;2023-08-20T03:25:01;12.30;;;7.40;;
5042;SDS011;2540;50.928;6.856;2023-08-20T03:27:27;13.87;;;8.63;;
5042;SDS011;2540;50.928;6.856;2023-08-20T03:29:52;18.67;;;9.53;;
5042;SDS011;2540;50.928;6.856;2023-08-20T03:32:18;12.83;;;8.20;;
5042;SDS011;2540;50.928;6.856;2023-08-20T03:34:43;14.80;;;6.90;;
5042;SDS011;2540;50.928;6.856;2023-08-20T03:37:09;12.20;;;6.60;;
5042;SDS011;2540;50.928;6.856;2023-08-20T03:39:34;10.90;;;7.07;;
5042;SDS011;2540;50.928;6.856;2023-08-20T03:41:59;15.00;;;7.40;;
5042;SDS011;2540;50.928;6.856;2023-08-20T03:44:25;10.97;;;6.77;;
5042;SDS011;2540;50.928;6.856;2023-08-20T03:46:50;10.87;;;6.50;;
5042;SDS011;2540;50.928;6.856;2023-08-20T03:49:15;10.60;;;6.60;;
5042;SDS011;2540;50.928;6.856;2023-08-20T03:51:40;10.97;;;7.63;;
5042;SDS011;2540;50.928;6.856;2023-08-20T03:54:07;14.93;;;8.83;;
5042;SDS011;2540;50.928;6.856;2023-08-20T03:56:33;20.30;;;11.17;;
5042;SDS011;2540;50.928;6.856;2023-08-20T03:58:58;15.70;;;9.90;;
5042;SDS011;2540;50.928;6.856;2023-08-20T04:01:23;19.23;;;10.80;;
5042;SDS011;2540;50.928;6.856;2023-08-20T04:03:49;16.20;;;9.40;;
5042;SDS011;2540;50.928;6.856;2023-08-20T04:06:14;21.60;;;10.63;;
5042;SDS011;2540;50.928;6.856;2023-08-20T04:08:40;16.60;;;10.93;;
5042;SDS011;2540;50.928;6.856;2023-08-20T04:11:05;20.83;;;12.20;;
5042;SDS011;2540;50.928;6.856;2023-08-20T04:13:31;21.50;;;10.80;;
5042;SDS011;2540;50.928;6.856;2023-08-20T04:15:56;24.53;;;13.10;;
5042;SDS011;2540;50.928;6.856;2023-08-20T04:18:22;20.37;;;12.77;;
5042;SDS011;2540;50.928;6.856;2023-08-20T04:20:47;26.93;;;13.97;;
5042;SDS011;2540;50.928;6.856;2023-08-20T04:23:14;22.23;;;12.77;;
5042;SDS011;2540;50.928;6.856;2023-08-20T04:25:40;24.23;;;13.57;;
5042;SDS011;2540;50.928;6.856;2023-08-20T04:28:06;24.20;;;12.80;;
5042;SDS011;2540;50.928;6.856;2023-08-20T04:30:31;27.93;;;14.67;;
5042;SDS011;2540;50.928;6.856;2023-08-20T04:32:56;21.53;;;11.93;;
5042;SDS011;2540;50.928;6.856;2023-08-20T04:35:22;22.30;;;12.80;;
5042;SDS011;2540;50.928;6.856;2023-08-20T04:37:47;26.00;;;13.07;;
5042;SDS011;2540;50.928;6.856;2023-08-20T04:40:12;25.83;;;13.83;;
5042;SDS011;2540;50.928;6.856;2023-08-20T04:42:38;27.70;;;13.70;;
5042;SDS011;2540;50.928;6.856;2023-08-20T04:45:03;22.80;;;13.77;;
5042;SDS011;2540;50.928;6.856;2023-08-20T04:47:29;26.83;;;13.60;;
5042;SDS011;2540;50.928;6.856;2023-08-20T04:49:54;21.37;;;12.60;;
5042;SDS011;2540;50.928;6.856;2023-08-20T04:52:20;21.60;;;12.07;;
5042;SDS011;2540;50.928;6.856;2023-08-20T04:54:46;25.93;;;13.17;;
5042;SDS011;2540;50.928;6.856;2023-08-20T04:57:12;27.50;;;13.87;;
5042;SDS011;2540;50.928;6.856;2023-08-20T04:59:37;26.27;;;13.13;;
5042;SDS011;2540;50.928;6.856;2023-08-20T05:02:03;37.67;;;15.20;;
5042;SDS011;2540;50.928;6.856;2023-08-20T05:04:28;27.93;;;14.27;;
5042;SDS011;2540;50.928;6.856;2023-08-20T05:06:53;26.83;;;15.57;;
5042;SDS011;2540;50.928;6.856;2023-08-20T05:09:19;29.63;;;14.80;;
5042;SDS011;2540;50.928;6.856;2023-08-20T05:11:44;31.20;;;14.50;;
5042;SDS011;2540;50.928;6.856;2023-08-20T05:14:09;23.33;;;12.67;;
5042;SDS011;2540;50.928;6.856;2023-08-20T05:16:35;28.80;;;12.60;;
5042;SDS011;2540;50.928;6.856;2023-08-20T05:19:00;26.90;;;13.60;;
5042;SDS011;2540;50.928;6.856;2023-08-20T05:21:25;25.90;;;13.80;;
5042;SDS011;2540;50.928;6.856;2023-08-20T05:23:51;23.37;;;13.67;;
5042;SDS011;2540;50.928;6.856;2023-08-20T05:26:16;25.33;;;14.30;;
5042;SDS011;2540;50.928;6.856;2023-08-20T05:28:41;24.83;;;13.47;;
5042;SDS011;2540;50.928;6.856;2023-08-20T05:31:07;23.80;;;13.03;;
5042;SDS011;2540;50.928;6.856;2023-08-20T05:33:32;30.07;;;13.77;;
5042;SDS011;2540;50.928;6.856;2023-08-20T05:35:59;22.60;;;12.80;;
5042;SDS011;2540;50.928;6.856;2023-08-20T05:38:24;23.53;;;12.27;;
5042;SDS011;2540;50.928;6.856;2023-08-20T05:40:50;21.97;;;12.10;;
5042;SDS011;2540;50.928;6.856;2023-08-20T05:43:15;32.00;;;13.53;;
5042;SDS011;2540;50.928;6.856;2023-08-20T05:45:40;21.67;;;12.00;;
5042;SDS011;2540;50.928;6.856;2023-08-20T05:48:06;26.00;;;11.60;;
5042;SDS011;2540;50.928;6.856;2023-08-20T05:50:31;19.53;;;10.90;;
5042;SDS011;2540;50.928;6.856;2023-08-20T05:52:57;26.60;;;11.40;;
5042;SDS011;2540;50.928;6.856;2023-08-20T05:55:22;21.20;;;11.20;;
5042;SDS011;2540;50.928;6.856;2023-08-20T05:57:47;20.03;;;12.00;;
5042;SDS011;2540;50.928;6.856;2023-08-20T06:00:13;26.07;;;12.27;;
5042;SDS011;2540;50.928;6.856;2023-08-20T06:02:38;19.93;;;12.33;;
5042;SDS011;2540;50.928;6.856;2023-08-20T06:05:04;19.13;;;10.37;;
5042;SDS011;2540;50.928;6.856;2023-08-20T06:07:30;20.80;;;11.63;;
5042;SDS011;2540;50.928;6.856;2023-08-20T06:09:55;18.70;;;11.07;;
5042;SDS011;2540;50.928;6.856;2023-08-20T06:12:22;29.23;;;11.90;;
5042;SDS011;2540;50.928;6.856;2023-08-20T06:14:47;22.43;;;11.53;;
5042;SDS011;2540;50.928;6.856;2023-08-20T06:17:13;22.93;;;11.70;;
5042;SDS011;2540;50.928;6.856;2023-08-20T06:19:38;21.50;;;11.67;;
5042;SDS011;2540;50.928;6.856;2023-08-20T06:22:04;19.00;;;10.67;;
5042;SDS011;2540;50.928;6.856;2023-08-20T06:24:29;20.43;;;11.43;;
5042;SDS011;2540;50.928;6.856;2023-08-20T06:26:55;24.63;;;12.10;;
5042;SDS011;2540;50.928;6.856;2023-08-20T06:29:20;30.80;;;12.83;;
5042;SDS011;2540;50.928;6.856;2023-08-20T06:31:47;22.10;;;11.23;;
5042;SDS011;2540;50.928;6.856;2023-08-20T06:34:13;23.17;;;12.50;;
5042;SDS011;2540;50.928;6.856;2023-08-20T06:36:38;20.57;;;11.60;;
5042;SDS011;2540;50.928;6.856;2023-08-20T06:39:03;22.10;;;12.27;;
5042;SDS011;2540;50.928;6.856;2023-08-20T06:41:29;22.83;;;11.40;;
5042;SDS011;2540;50.928;6.856;2023-08-20T06:43:54;20.60;;;11.80;;
5042;SDS011;2540;50.928;6.856;2023-08-20T06:46:19;18.47;;;10.30;;
5042;SDS011;2540;50.928;6.856;2023-08-20T06:48:45;22.57;;;11.50;;
5042;SDS011;2540;50.928;6.856;2023-08-20T06:51:11;24.47;;;11.83;;
5042;SDS011;2540;50.928;6.856;2023-08-20T06:53:37;23.40;;;11.93;;
5042;SDS011;2540;50.928;6.856;2023-08-20T06:56:02;18.10;;;10.40;;
5042;SDS011;2540;50.928;6.856;2023-08-20T06:58:28;16.27;;;10.00;;
5042;SDS011;2540;50.928;6.856;2023-08-20T07:00:53;24.50;;;11.57;;
5042;SDS011;2540;50.928;6.856;2023-08-20T07:03:19;18.43;;;11.10;;
5042;SDS011;2540;50.928;6.856;2023-08-20T07:05:44;20.70;;;11.00;;
5042;SDS011;2540;50.928;6.856;2023-08-20T07:08:09;20.77;;;10.50;;
5042;SDS011;2540;50.928;6.856;2023-08-20T07:10:35;19.00;;;9.97;;
5042;SDS011;2540;50.928;6.856;2023-08-20T07:13:00;20.93;;;11.87;;
5042;SDS011;2540;50.928;6.856;2023-08-20T07:15:25;21.00;;;11.50;;
5042;SDS011;2540;50.928;6.856;2023-08-20T07:17:51;23.40;;;11.77;;
5042;SDS011;2540;50.928;6.856;2023-08-20T07:23:14;22.70;;;11.07;;
5042;SDS011;2540;50.928;6.856;2023-08-20T07:25:40;24.53;;;11.30;;
5042;SDS011;2540;50.928;6.856;2023-08-20T07:28:06;17.30;;;11.20;;
5042;SDS011;2540;50.928;6.856;2023-08-20T07:30:33;23.33;;;13.00;;
5042;SDS011;2540;50.928;6.856;2023-08-20T07:32:59;19.97;;;11.87;;
5042;SDS011;2540;50.928;6.856;2023-08-20T07:35:24;19.63;;;11.00;;
5042;SDS011;2540;50.928;6.856;2023-08-20T07:37:50;20.13;;;11.07;;
5042;SDS011;2540;50.928;6.856;2023-08-20T07:40:15;21.20;;;11.30;;
5042;SDS011;2540;50.928;6.856;2023-08-20T07:42:41;25.80;;;11.00;;
5042;SDS011;2540;50.928;6.856;2023-08-20T07:45:06;19.03;;;11.83;;
5042;SDS011;2540;50.928;6.856;2023-08-20T07:47:33;20.70;;;11.30;;
5042;SDS011;2540;50.928;6.856;2023-08-20T07:49:58;26.23;;;13.27;;
5042;SDS011;2540;50.928;6.856;2023-08-20T07:52:24;22.03;;;12.10;;
5042;SDS011;2540;50.928;6.856;2023-08-20T07:54:49;22.73;;;11.57;;
5042;SDS011;2540;50.928;6.856;2023-08-20T07:57:14;24.83;;;12.77;;
5042;SDS011;2540;50.928;6.856;2023-08-20T07:59:40;24.30;;;12.43;;
5042;SDS011;2540;50.928;6.856;2023-08-20T08:02:05;26.33;;;13.60;;
5042;SDS011;2540;50.928;6.856;2023-08-20T08:04:30;27.27;;;13.57;;
5042;SDS011;2540;50.928;6.856;2023-08-20T08:06:56;20.20;;;12.40;;
5042;SDS011;2540;50.928;6.856;2023-08-20T08:09:26;26.97;;;13.67;;
5042;SDS011;2540;50.928;6.856;2023-08-20T08:11:51;28.13;;;12.13;;
5042;SDS011;2540;50.928;6.856;2023-08-20T08:14:17;19.87;;;10.90;;
5042;SDS011;2540;50.928;6.856;2023-08-20T08:16:42;21.70;;;13.20;;
5042;SDS011;2540;50.928;6.856;2023-08-20T08:19:08;22.70;;;11.80;;
5042;SDS011;2540;50.928;6.856;2023-08-20T08:21:33;22.80;;;11.37;;
5042;SDS011;2540;50.928;6.856;2023-08-20T08:23:58;26.57;;;13.43;;
5042;SDS011;2540;50.928;6.856;2023-08-20T08:26:24;23.20;;;10.83;;
5042;SDS011;2540;50.928;6.856;2023-08-20T08:28:49;23.63;;;12.80;;
5042;SDS011;2540;50.928;6.856;2023-08-20T08:31:14;21.07;;;12.37;;
5042;SDS011;2540;50.928;6.856;2023-08-20T08:33:40;18.23;;;11.07;;
5042;SDS011;2540;50.928;6.856;2023-08-20T08:36:05;28.20;;;13.70;;
5042;SDS011;2540;50.928;6.856;2023-08-20T08:38:30;27.60;;;12.40;;
5042;SDS011;2540;50.928;6.856;2023-08-20T08:40:56;21.80;;;11.20;;
5042;SDS011;2540;50.928;6.856;2023-08-20T08:43:22;19.63;;;11.20;;
5042;SDS011;2540;50.928;6.856;2023-08-20T08:45:47;19.73;;;11.10;;
5042;SDS011;2540;50.928;6.856;2023-08-20T08:48:14;23.90;;;12.60;;
5042;SDS011;2540;50.928;6.856;2023-08-20T08:50:39;21.50;;;11.03;;
5042;SDS011;2540;50.928;6.856;2023-08-20T08:53:05;25.00;;;12.37;;
5042;SDS011;2540;50.928;6.856;2023-08-20T08:55:31;16.03;;;11.00;;
5042;SDS011;2540;50.928;6.856;2023-08-20T08:57:56;22.70;;;9.93;;
5042;SDS011;2540;50.928;6.856;2023-08-20T09:00:22;14.20;;;9.13;;
5042;SDS011;2540;50.928;6.856;2023-08-20T09:02:47;13.90;;;8.83;;
5042;SDS011;2540;50.928;6.856;2023-08-20T09:05:13;14.70;;;8.13;;
5042;SDS011;2540;50.928;6.856;2023-08-20T09:07:42;17.57;;;9.10;;
5042;SDS011;2540;50.928;6.856;2023-08-20T09:10:08;19.30;;;8.10;;
5042;SDS011;2540;50.928;6.856;2023-08-20T09:12:34;12.93;;;7.83;;
5042;SDS011;2540;50.928;6.856;2023-08-20T09:15:00;14.20;;;7.33;;
5042;SDS011;2540;50.928;6.856;2023-08-20T09:17:26;10.80;;;5.80;;
5042;SDS011;2540;50.928;6.856;2023-08-20T09:19:54;9.60;;;6.30;;
5042;SDS011;2540;50.928;6.856;2023-08-20T09:22:23;13.30;;;7.90;;
5042;SDS011;2540;50.928;6.856;2023-08-20T09:24:52;11.20;;;6.87;;
5042;SDS011;2540;50.928;6.856;2023-08-20T09:27:19;17.53;;;8.33;;
5042;SDS011;2540;50.928;6.856;2023-08-20T09:29:45;16.13;;;7.93;;
5042;SDS011;2540;50.928;6.856;2023-08-20T09:32:19;11.07;;;6.87;;
5042;SDS011;2540;50.928;6.856;2023-08-20T09:34:45;14.00;;;8.00;;
5042;SDS011;2540;50.928;6.856;2023-08-20T09:37:11;15.03;;;7.07;;
5042;SDS011;2540;50.928;6.856;2023-08-20T09:39:37;12.50;;;7.50;;
5042;SDS011;2540;50.928;6.856;2023-08-20T09:42:03;12.63;;;7.50;;
5042;SDS011;2540;50.928;6.856;2023-08-20T09:44:32;13.53;;;7.23;;
5042;SDS011;2540;50.928;6.856;2023-08-20T09:47:02;12.30;;;7.30;;
5042;SDS011;2540;50.928;6.856;2023-08-20T09:49:30;13.50;;;7.43;;
5042;SDS011;2540;50.928;6.856;2023-08-20T09:52:00;15.37;;;7.60;;
5042;SDS011;2540;50.928;6.856;2023-08-20T09:54:28;16.77;;;9.93;;
5042;SDS011;2540;50.928;6.856;2023-08-20T09:57:22;17.50;;;8.60;;
5042;SDS011;2540;50.928;6.856;2023-08-20T09:59:51;20.53;;;8.70;;
5042;SDS011;2540;50.928;6.856;2023-08-20T10:02:17;12.43;;;7.90;;
5042;SDS011;2540;50.928;6.856;2023-08-20T10:04:43;13.30;;;7.47;;
5042;SDS011;2540;50.928;6.856;2023-08-20T10:07:09;14.60;;;7.83;;
5042;SDS011;2540;50.928;6.856;2023-08-20T10:09:35;14.13;;;7.60;;
5042;SDS011;2540;50.928;6.856;2023-08-20T10:12:01;14.60;;;7.80;;
5042;SDS011;2540;50.928;6.856;2023-08-20T10:14:26;13.23;;;7.50;;
5042;SDS011;2540;50.928;6.856;2023-08-20T10:16:52;8.30;;;6.30;;
5042;SDS011;2540;50.928;6.856;2023-08-20T10:19:21;12.50;;;6.63;;
5042;SDS011;2540;50.928;6.856;2023-08-20T10:21:52;13.53;;;7.70;;
5042;SDS011;2540;50.928;6.856;2023-08-20T10:24:18;9.53;;;6.90;;
5042;SDS011;2540;50.928;6.856;2023-08-20T10:26:47;11.50;;;7.20;;
5042;SDS011;2540;50.928;6.856;2023-08-20T10:32:10;10.67;;;7.57;;
5042;SDS011;2540;50.928;6.856;2023-08-20T10:34:42;11.63;;;7.50;;
5042;SDS011;2540;50.928;6.856;2023-08-20T10:37:08;14.07;;;6.87;;
5042;SDS011;2540;50.928;6.856;2023-08-20T10:39:53;12.13;;;8.20;;
5042;SDS011;2540;50.928;6.856;2023-08-20T10:42:22;13.50;;;7.37;;
5042;SDS011;2540;50.928;6.856;2023-08-20T10:47:24;11.73;;;7.37;;
5042;SDS011;2540;50.928;6.856;2023-08-20T10:49:53;10.40;;;7.17;;
5042;SDS011;2540;50.928;6.856;2023-08-20T10:52:22;16.10;;;8.40;;
5042;SDS011;2540;50.928;6.856;2023-08-20T10:54:51;8.03;;;6.30;;
5042;SDS011;2540;50.928;6.856;2023-08-20T10:57:18;11.07;;;7.20;;
5042;SDS011;2540;50.928;6.856;2023-08-20T10:59:50;11.97;;;6.50;;
5042;SDS011;2540;50.928;6.856;2023-08-20T11:02:22;9.83;;;6.97;;
5042;SDS011;2540;50.928;6.856;2023-08-20T11:04:48;9.60;;;6.40;;
5042;SDS011;2540;50.928;6.856;2023-08-20T11:07:13;12.47;;;6.60;;
5042;SDS011;2540;50.928;6.856;2023-08-20T11:09:42;12.87;;;7.10;;
5042;SDS011;2540;50.928;6.856;2023-08-20T11:12:10;13.00;;;6.60;;
5042;SDS011;2540;50.928;6.856;2023-08-20T11:14:37;7.40;;;5.90;;
5042;SDS011;2540;50.928;6.856;2023-08-20T11:17:03;8.90;;;6.50;;
5042;SDS011;2540;50.928;6.856;2023-08-20T11:19:28;10.90;;;6.60;;
5042;SDS011;2540;50.928;6.856;2023-08-20T11:22:00;8.20;;;6.17;;
5042;SDS011;2540;50.928;6.856;2023-08-20T11:24:29;10.40;;;6.20;;
5042;SDS011;2540;50.928;6.856;2023-08-20T11:26:55;9.27;;;6.53;;
5042;SDS011;2540;50.928;6.856;2023-08-20T11:29:20;9.77;;;6.73;;
5042;SDS011;2540;50.928;6.856;2023-08-20T11:31:46;8.13;;;6.47;;
5042;SDS011;2540;50.928;6.856;2023-08-20T11:34:15;10.80;;;6.60;;
5042;SDS011;2540;50.928;6.856;2023-08-20T11:36:41;7.30;;;6.00;;
5042;SDS011;2540;50.928;6.856;2023-08-20T11:39:06;13.90;;;7.60;;
5042;SDS011;2540;50.928;6.856;2023-08-20T11:41:35;8.03;;;6.20;;
5042;SDS011;2540;50.928;6.856;2023-08-20T11:44:01;7.90;;;5.80;;
5042;SDS011;2540;50.928;6.856;2023-08-20T11:46:28;8.97;;;6.20;;
5042;SDS011;2540;50.928;6.856;2023-08-20T11:49:07;7.00;;;5.27;;
5042;SDS011;2540;50.928;6.856;2023-08-20T11:51:40;8.83;;;5.77;;
5042;SDS011;2540;50.928;6.856;2023-08-20T11:54:11;10.30;;;5.90;;
5042;SDS011;2540;50.928;6.856;2023-08-20T11:56:42;6.73;;;5.30;;
5042;SDS011;2540;50.928;6.856;2023-08-20T11:59:10;8.40;;;5.00;;
5042;SDS011;2540;50.928;6.856;2023-08-20T12:01:35;8.47;;;5.47;;
5042;SDS011;2540;50.928;6.856;2023-08-20T12:04:03;9.30;;;5.27;;
5042;SDS011;2540;50.928;6.856;2023-08-20T12:06:28;6.30;;;4.80;;
5042;SDS011;2540;50.928;6.856;2023-08-20T12:08:56;6.67;;;5.43;;
5042;SDS011;2540;50.928;6.856;2023-08-20T12:11:26;10.83;;;5.70;;
5042;SDS011;2540;50.928;6.856;2023-08-20T12:13:54;8.07;;;5.23;;
5042;SDS011;2540;50.928;6.856;2023-08-20T12:16:23;7.90;;;5.10;;
5042;SDS011;2540;50.928;6.856;2023-08-20T12:18:49;12.70;;;5.80;;
5042;SDS011;2540;50.928;6.856;2023-08-20T12:21:15;8.83;;;5.47;;
5042;SDS011;2540;50.928;6.856;2023-08-20T12:23:40;9.77;;;5.50;;
5042;SDS011;2540;50.928;6.856;2023-08-20T12:26:06;10.73;;;5.10;;
5042;SDS011;2540;50.928;6.856;2023-08-20T12:28:32;7.13;;;4.93;;
5042;SDS011;2540;50.928;6.856;2023-08-20T12:30:58;5.83;;;4.70;;
5042;SDS011;2540;50.928;6.856;2023-08-20T12:33:23;6.50;;;5.07;;
5042;SDS011;2540;50.928;6.856;2023-08-20T12:35:49;7.03;;;5.00;;
5042;SDS011;2540;50.928;6.856;2023-08-20T12:38:14;6.87;;;5.40;;
5042;SDS011;2540;50.928;6.856;2023-08-20T12:40:40;5.87;;;5.07;;
5042;SDS011;2540;50.928;6.856;2023-08-20T12:43:05;5.33;;;4.83;;
5042;SDS011;2540;50.928;6.856;2023-08-20T12:45:31;8.00;;;5.70;;
5042;SDS011;2540;50.928;6.856;2023-08-20T12:47:56;9.00;;;5.77;;
5042;SDS011;2540;50.928;6.856;2023-08-20T12:50:21;9.23;;;5.90;;
5042;SDS011;2540;50.928;6.856;2023-08-20T12:52:47;8.07;;;5.40;;
5042;SDS011;2540;50.928;6.856;2023-08-20T12:55:14;7.67;;;5.70;;
5042;SDS011;2540;50.928;6.856;2023-08-20T12:57:51;9.30;;;6.00;;
5042;SDS011;2540;50.928;6.856;2023-08-20T13:00:19;7.73;;;5.80;;
5042;SDS011;2540;50.928;6.856;2023-08-20T13:02:45;8.13;;;6.00;;
5042;SDS011;2540;50.928;6.856;2023-08-20T13:05:11;10.57;;;5.90;;
5042;SDS011;2540;50.928;6.856;2023-08-20T13:07:37;7.63;;;5.10;;
5042;SDS011;2540;50.928;6.856;2023-08-20T13:10:02;8.90;;;5.63;;
5042;SDS011;2540;50.928;6.856;2023-08-20T13:12:28;5.80;;;4.70;;
5042;SDS011;2540;50.928;6.856;2023-08-20T13:14:57;6.23;;;5.30;;
5042;SDS011;2540;50.928;6.856;2023-08-20T13:17:22;7.40;;;5.20;;
5042;SDS011;2540;50.928;6.856;2023-08-20T13:19:48;5.53;;;4.63;;
5042;SDS011;2540;50.928;6.856;2023-08-20T13:22:13;10.57;;;4.90;;
5042;SDS011;2540;50.928;6.856;2023-08-20T13:24:39;5.80;;;4.50;;
5042;SDS011;2540;50.928;6.856;2023-08-20T13:27:04;6.40;;;4.70;;
5042;SDS011;2540;50.928;6.856;2023-08-20T13:29:30;6.07;;;4.80;;
5042;SDS011;2540;50.928;6.856;2023-08-20T13:31:55;9.10;;;5.10;;
5042;SDS011;2540;50.928;6.856;2023-08-20T13:34:20;12.23;;;5.63;;
5042;SDS011;2540;50.928;6.856;2023-08-20T13:36:46;4.80;;;4.27;;
5042;SDS011;2540;50.928;6.856;2023-08-20T13:39:11;8.40;;;4.77;;
5042;SDS011;2540;50.928;6.856;2023-08-20T13:41:38;11.63;;;5.33;;
5042;SDS011;2540;50.928;6.856;2023-08-20T13:44:04;11.60;;;5.67;;
5042;SDS011;2540;50.928;6.856;2023-08-20T13:46:30;7.70;;;5.63;;
5042;SDS011;2540;50.928;6.856;2023-08-20T13:49:18;7.20;;;5.63;;
5042;SDS011;2540;50.928;6.856;2023-08-20T13:51:43;9.70;;;5.30;;
5042;SDS011;2540;50.928;6.856;2023-08-20T13:54:09;7.90;;;4.93;;
5042;SDS011;2540;50.928;6.856;2023-08-20T13:56:34;8.20;;;5.50;;
5042;SDS011;2540;50.928;6.856;2023-08-20T13:58:59;7.67;;;5.70;;
5042;SDS011;2540;50.928;6.856;2023-08-20T14:01:25;6.17;;;4.60;;
5042;SDS011;2540;50.928;6.856;2023-08-20T14:03:51;6.63;;;5.23;;
5042;SDS011;2540;50.928;6.856;2023-08-20T14:06:16;7.73;;;5.30;;
5042;SDS011;2540;50.928;6.856;2023-08-20T14:08:42;10.30;;;4.83;;
5042;SDS011;2540;50.928;6.856;2023-08-20T14:11:08;6.90;;;4.50;;
5042;SDS011;2540;50.928;6.856;2023-08-20T14:13:34;6.00;;;5.07;;
5042;SDS011;2540;50.928;6.856;2023-08-20T14:15:59;6.10;;;4.83;;
5042;SDS011;2540;50.928;6.856;2023-08-20T14:18:25;7.90;;;5.67;;
5042;SDS011;2540;50.928;6.856;2023-08-20T14:20:51;6.40;;;4.97;;
5042;SDS011;2540;50.928;6.856;2023-08-20T14:23:16;5.37;;;4.13;;
5042;SDS011;2540;50.928;6.856;2023-08-20T14:25:42;8.63;;;5.30;;
5042;SDS011;2540;50.928;6.856;2023-08-20T14:28:07;7.73;;;4.50;;
5042;SDS011;2540;50.928;6.856;2023-08-20T14:30:36;7.60;;;4.47;;
5042;SDS011;2540;50.928;6.856;2023-08-20T14:33:03;4.80;;;4.30;;
5042;SDS011;2540;50.928;6.856;2023-08-20T14:35:29;6.47;;;5.20;;
5042;SDS011;2540;50.928;6.856;2023-08-20T14:37:54;6.20;;;5.10;;
5042;SDS011;2540;50.928;6.856;2023-08-20T14:40:20;10.50;;;5.00;;
5042;SDS011;2540;50.928;6.856;2023-08-20T14:42:45;13.57;;;4.93;;
5042;SDS011;2540;50.928;6.856;2023-08-20T14:45:10;6.00;;;4.90;;
5042;SDS011;2540;50.928;6.856;2023-08-20T14:47:36;7.93;;;4.40;;
5042;SDS011;2540;50.928;6.856;2023-08-20T14:50:01;5.97;;;4.43;;
5042;SDS011;2540;50.928;6.856;2023-08-20T14:52:27;6.03;;;4.40;;
5042;SDS011;2540;50.928;6.856;2023-08-20T14:54:52;7.43;;;5.00;;
5042;SDS011;2540;50.928;6.856;2023-08-20T14:57:18;6.90;;;4.33;;
5042;SDS011;2540;50.928;6.856;2023-08-20T14:59:43;11.07;;;4.73;;
5042;SDS011;2540;50.928;6.856;2023-08-20T15:02:08;5.10;;;4.30;;
5042;SDS011;2540;50.928;6.856;2023-08-20T15:04:34;6.00;;;4.60;;
5042;SDS011;2540;50.928;6.856;2023-08-20T15:06:59;5.67;;;4.47;;
5042;SDS011;2540;50.928;6.856;2023-08-20T15:09:24;6.50;;;4.60;;
5042;SDS011;2540;50.928;6.856;2023-08-20T15:11:50;6.60;;;4.67;;